Time;durP1;ratioP1;P1;durP2;ratioP2;P2;SDS_P1;SDS_P2;PMS_P1;PMS_P2;Temp;Humidity;BMP_temperature;BMP_pressure;BME280_temperature;BME280_humidity;BME280_pressure;Samples;Min_cycle;Max_cycle;Signal;HPM_P1;HPM_P2
2021/11/02 00:00:51;;;;;;;;;;;9.30;99.90;;;7.92;100.00;100038.03;5024853;28;20053;-77
2021/11/02 00:03:17;;;;;;;16.80;7.50;;;9.40;99.90;;;7.95;100.00;100032.66;5042168;28;20011;-77
2021/11/02 00:05:43;;;;;;;22.70;8.20;;;9.40;99.90;;;7.95;100.00;100037.91;5020477;28;20148;-78
2021/11/02 00:08:18;;;;;;;25.30;10.48;;;9.40;99.90;;;7.93;100.00;100052.03;5007083;28;20430;-76
2021/11/02 00:10:44;;;;;;;18.45;8.52;;;9.40;99.90;;;7.96;100.00;100055.31;5039499;28;20060;-76
2021/11/02 00:13:10;;;;;;;;;;;9.40;99.90;;;8.04;100.00;100059.38;5022721;28;20056;-77
2021/11/02 00:15:39;;;;;;;21.13;8.48;;;9.40;99.90;;;8.02;100.00;100060.28;5018367;28;19944;-76
2021/11/02 00:18:06;;;;;;;22.40;8.45;;;9.40;99.90;;;8.01;100.00;100062.97;5014967;28;20070;-77
2021/11/02 00:20:37;;;;;;;26.08;9.40;;;9.40;99.90;;;7.97;100.00;100069.31;5054382;28;20427;-76
2021/11/02 00:23:05;;;;;;;22.77;8.77;;;9.40;99.90;;;7.94;100.00;100072.91;5054647;28;20021;-77
2021/11/02 00:25:35;;;;;;;21.75;8.73;;;9.40;99.90;;;7.93;100.00;100058.09;5043832;28;20142;-77
2021/11/02 00:28:03;;;;;;;22.27;9.05;;;9.40;99.90;;;8.05;100.00;100105.63;5037208;28;20064;-77
2021/11/02 00:30:30;;;;;;;22.52;8.50;;;9.40;99.90;;;7.99;100.00;100149.59;5006047;28;20151;-76
2021/11/02 00:32:56;;;;;;;22.48;8.20;;;9.40;99.90;;;7.98;100.00;100137.38;5043927;28;20094;-76
2021/11/02 00:35:24;;;;;;;;;;;9.40;99.90;;;7.96;100.00;100133.97;5022733;28;20051;-78
2021/11/02 00:37:51;;;;;;;18.33;7.95;;;9.40;99.90;;;7.98;100.00;100149.66;5035217;28;19943;-77
2021/11/02 00:40:20;;;;;;;25.45;8.77;;;9.40;99.90;;;7.97;100.00;100114.72;5035766;28;20068;-77
2021/11/02 00:42:59;;;;;;;20.58;8.50;;;9.40;99.90;;;7.96;100.00;100138.38;5034470;28;20103;-76
2021/11/02 00:45:32;;;;;;;22.33;8.63;;;9.40;99.90;;;8.01;100.00;100181.84;5027947;28;20063;-76
2021/11/02 00:48:01;;;;;;;19.50;8.07;;;9.40;99.90;;;7.93;100.00;100170.81;5033663;28;20536;-77
2021/11/02 00:50:30;;;;;;;21.67;8.60;;;9.40;99.90;;;8.00;100.00;100185.34;5041974;28;20073;-76
2021/11/02 00:52:59;;;;;;;26.35;8.57;;;9.40;99.90;;;7.97;100.00;100172.41;5037571;28;20509;-76
2021/11/02 00:55:24;;;;;;;23.55;8.30;;;9.40;99.90;;;7.92;100.00;100187.47;5033194;28;20058;-77
2021/11/02 00:57:50;;;;;;;;;;;9.30;99.90;;;7.88;100.00;100172.78;5037422;28;20073;-76
2021/11/02 01:00:18;;;;;;;25.08;8.93;;;9.30;99.90;;;7.84;100.00;100179.09;5045108;28;20105;-78
2021/11/02 01:02:45;;;;;;;20.33;9.63;;;9.30;99.90;;;7.90;100.00;100218.13;4968389;28;20070;-78
2021/11/02 01:05:17;;;;;;;21.20;8.60;;;9.30;99.90;;;7.86;100.00;100221.84;5023634;28;20054;-78
2021/11/02 01:07:43;;;;;;;24.38;8.48;;;9.30;99.90;;;7.88;100.00;100225.22;5045633;28;20071;-78
2021/11/02 01:10:18;;;;;;;20.77;8.95;;;9.30;99.90;;;7.85;100.00;100230.59;5000529;28;20079;-78
2021/11/02 01:12:47;;;;;;;27.67;9.48;;;9.30;99.90;;;7.84;100.00;100231.53;5024804;28;20054;-78
2021/11/02 01:15:18;;;;;;;23.35;8.32;;;10.10;99.90;;;7.87;100.00;100260.22;5029159;28;20059;-80
2021/11/02 01:17:45;;;;;;;17.38;8.63;;;9.30;99.90;;;7.86;100.00;100261.16;5007159;28;20442;-78
2021/11/02 01:20:15;;;;;;;26.88;9.82;;;9.30;99.90;;;7.81;100.00;100273.59;5028212;28;20062;-79
2021/11/02 01:22:44;;;;;;;19.75;8.82;;;9.30;99.90;;;7.79;100.00;100225.63;5021414;28;20527;-78
2021/11/02 01:25:16;;;;;;;20.77;8.10;;;9.30;99.90;;;7.76;100.00;100203.00;5008794;28;20070;-79
2021/11/02 01:27:43;;;;;;;20.63;8.73;;;9.30;99.90;;;7.81;100.00;100192.31;4998896;28;20069;-78
2021/11/02 01:30:11;;;;;;;21.17;8.75;;;9.20;99.90;;;7.79;100.00;100171.41;5022661;28;20080;-78
2021/11/02 01:32:38;;;;;;;19.98;9.27;;;9.20;99.90;;;7.75;100.00;100169.00;5014452;28;20091;-78
2021/11/02 01:35:08;;;;;;;27.55;9.73;;;9.20;99.90;;;7.76;100.00;100173.34;5015181;28;20539;-78
2021/11/02 01:37:38;;;;;;;22.30;9.35;;;9.20;99.90;;;7.75;100.00;100138.44;5036105;28;22884;-78
2021/11/02 01:40:14;;;;;;;25.88;9.90;;;9.20;99.90;;;7.73;100.00;100126.28;5017443;28;20061;-78
2021/11/02 01:42:40;;;;;;;23.00;9.02;;;9.20;99.90;;;7.71;100.00;100117.63;4994954;28;20158;-78
2021/11/02 01:45:11;;;;;;;20.85;8.38;;;9.20;99.90;;;7.69;100.00;100099.38;4989267;28;20540;-78
2021/11/02 01:47:43;;;;;;;23.83;9.02;;;9.20;99.90;;;7.69;100.00;100094.16;5002812;28;20063;-78
2021/11/02 01:50:09;;;;;;;22.02;9.10;;;9.10;99.90;;;7.64;100.00;100077.75;5009934;28;20085;-78
2021/11/02 01:52:35;;;;;;;24.10;9.65;;;9.10;99.90;;;7.64;100.00;100083.00;5023748;28;20050;-78
2021/11/02 01:55:03;;;;;;;;;;;9.10;99.90;;;7.59;100.00;100079.75;5053549;28;20388;-78
2021/11/02 01:57:29;;;;;;;16.88;7.78;;;9.10;99.90;;;7.67;100.00;100079.41;5027131;28;19991;-78
2021/11/02 01:59:55;;;;;;;;;;;9.10;99.90;;;7.63;100.00;100072.63;5022490;28;20062;-79
2021/11/02 02:02:47;;;;;;;21.65;8.38;;;9.10;99.90;;;7.57;100.00;100055.38;5022042;28;19938;-79
2021/11/02 02:05:34;;;;;;;22.65;9.13;;;9.00;99.90;;;7.56;100.00;100059.78;5019158;28;20084;-78
2021/11/02 02:08:25;;;;;;;17.60;8.70;;;9.00;99.90;;;7.64;100.00;100072.53;5038278;28;20550;-78
2021/11/02 02:11:11;;;;;;;22.42;9.60;;;9.10;99.90;;;7.58;100.00;100057.94;5051929;28;20428;-78
2021/11/02 02:13:57;;;;;;;19.67;8.75;;;9.00;99.90;;;7.55;100.00;100049.38;5033119;28;20534;-78
2021/11/02 02:16:43;;;;;;;22.33;8.68;;;9.00;99.90;;;7.58;100.00;100043.97;5018130;28;20206;-78
2021/11/02 02:19:40;;;;;;;20.50;8.07;;;8.90;99.90;;;7.58;100.00;100046.59;5059908;28;20177;-78
2021/11/02 02:22:40;;;;;;;20.38;8.13;;;9.00;99.90;;;7.59;100.00;100046.53;5022799;28;20066;-78
2021/11/02 02:25:31;;;;;;;24.98;9.30;;;9.00;99.90;;;7.51;100.00;100030.31;5019239;28;20109;-78
2021/11/02 02:28:11;;;;;;;21.15;8.73;;;8.90;99.90;;;7.46;100.00;100040.16;5003775;28;20490;-78
2021/11/02 02:30:46;;;;;;;22.77;8.27;;;8.90;99.90;;;7.40;100.00;100024.69;5012454;28;20492;-78
2021/11/02 02:33:16;;;;;;;19.15;8.07;;;8.80;99.90;;;7.43;100.00;100034.19;5034696;28;20141;-79
2021/11/02 02:35:45;;;;;;;21.17;8.18;;;8.90;99.90;;;7.42;100.00;100035.97;5035470;28;20520;-78
2021/11/02 02:38:14;;;;;;;23.63;8.23;;;8.90;99.90;;;7.40;100.00;100032.56;5027667;28;20070;-78
2021/11/02 02:40:50;;;;;;;20.92;8.18;;;8.90;99.90;;;7.47;100.00;100036.59;5000591;28;20100;-78
2021/11/02 02:43:19;;;;;;;20.92;8.02;;;8.90;99.90;;;7.44;100.00;100025.41;4975081;28;20031;-78
2021/11/02 02:45:49;;;;;;;17.15;7.93;;;8.90;99.90;;;7.45;100.00;100022.75;5016808;28;20059;-79
2021/11/02 02:48:19;;;;;;;19.77;7.68;;;8.90;99.90;;;7.43;100.00;100024.56;5054879;28;20506;-78
2021/11/02 02:50:51;;;;;;;16.80;7.55;;;8.90;99.90;;;7.39;100.00;100012.53;5021515;28;20059;-78
2021/11/02 02:53:20;;;;;;;18.08;7.07;;;8.80;99.90;;;7.39;100.00;100012.53;5024551;28;20063;-79
2021/11/02 02:55:48;;;;;;;16.05;8.00;;;8.80;99.90;;;7.37;100.00;100009.97;5028691;28;20059;-80
2021/11/02 02:58:16;;;;;;;16.00;7.88;;;8.80;99.90;;;7.35;100.00;100008.34;5012946;28;20089;-78
2021/11/02 03:00:46;;;;;;;16.80;7.90;;;8.80;99.90;;;7.33;100.00;100007.56;5018786;28;20064;-79
2021/11/02 03:03:14;;;;;;;19.10;7.53;;;8.80;99.90;;;7.40;100.00;100014.22;5048638;28;20207;-78
2021/11/02 03:05:41;;;;;;;15.55;6.88;;;8.80;99.90;;;7.37;100.00;100009.13;5028914;28;20110;-79
2021/11/02 03:08:08;;;;;;;16.30;7.50;;;8.80;99.90;;;7.40;100.00;99999.34;5027044;28;20065;-78
2021/11/02 03:10:37;;;;;;;17.70;7.15;;;8.80;99.90;;;7.36;100.00;99986.47;5011455;28;20055;-79
2021/11/02 03:13:08;;;;;;;16.15;6.97;;;8.80;99.90;;;7.37;100.00;99990.81;5026738;28;20063;-79
2021/11/02 03:15:53;;;;;;;19.88;7.18;;;8.80;99.90;;;7.36;100.00;99989.09;5038648;28;20517;-78
2021/11/02 04:45:42;;;;;;;25.05;6.93;;;8.50;99.90;;;7.06;100.00;99931.09;5027049;28;20080;-79
2021/11/02 04:48:06;;;;;;;21.50;7.22;;;8.50;99.90;;;7.02;100.00;99934.75;5007222;28;20078;-78
2021/11/02 05:58:55;;;;;;;19.73;8.57;;;8.30;99.90;;;6.80;100.00;99947.94;5033524;28;20059;-80
2021/11/02 06:04:12;;;;;;;28.63;11.07;;;8.30;99.90;;;6.78;100.00;99958.47;4991234;28;20055;-80
2021/11/02 06:07:01;;;;;;;62.03;24.88;;;8.40;99.90;;;6.81;100.00;99955.72;5029209;28;20133;-81
2021/11/02 06:09:49;;;;;;;69.05;31.63;;;8.40;99.90;;;6.83;100.00;99948.66;5027176;28;20456;-80
2021/11/02 06:29:29;;;;;;;28.35;12.40;;;8.40;99.90;;;6.75;100.00;99919.38;5040241;28;20089;-80
2021/11/02 06:32:06;;;;;;;30.95;13.75;;;8.30;99.90;;;6.73;100.00;99923.81;5000372;28;20179;-81
2021/11/02 06:48:19;;;;;;;23.48;8.60;;;8.40;99.90;;;6.91;100.00;99924.75;5014633;28;20485;-80
2021/11/02 07:16:51;;;;;;;25.73;9.98;;;8.50;99.90;;;7.06;100.00;99959.88;5019563;28;20106;-80
2021/11/02 07:19:29;;;;;;;27.40;10.60;;;8.50;99.90;;;7.05;100.00;99955.56;5014346;28;20520;-80
2021/11/02 07:25:35;;;;;;;25.30;10.60;;;8.60;99.90;;;7.15;100.00;99972.59;4996478;28;20128;-81
2021/11/02 07:28:01;;;;;;;26.58;9.55;;;8.70;99.90;;;7.16;100.00;99967.25;5014288;28;20534;-80
2021/11/02 08:47:34;;;;;;;24.00;11.23;;;9.30;99.90;;;7.94;100.00;99920.00;5045858;28;20078;-79
2021/11/02 08:50:06;;;;;;;19.02;9.75;;;9.40;99.90;;;7.98;100.00;99917.16;5007365;28;20082;-80
2021/11/02 08:52:33;;;;;;;22.00;10.23;;;9.50;99.90;;;8.01;100.00;99911.78;4976295;28;20181;-80
2021/11/02 08:55:09;;;;;;;24.23;9.95;;;9.50;99.90;;;8.02;100.00;99902.13;4970800;28;20483;-80
2021/11/02 08:57:36;;;;;;;22.83;11.13;;;;;;;8.04;100.00;99904.69;4989387;28;20058;-80
2021/11/02 09:00:07;;;;;;;22.67;9.98;;;9.50;99.90;;;8.08;100.00;99900.97;5047605;28;20062;-79
2021/11/02 09:03:06;;;;;;;19.30;9.77;;;9.50;99.90;;;8.07;100.00;99891.41;5003183;28;20072;-80
2021/11/02 09:06:06;;;;;;;22.42;9.68;;;9.50;99.90;;;8.13;100.00;99907.69;5000978;28;20071;-80
2021/11/02 09:09:06;;;;;;;21.35;9.18;;;9.60;99.90;;;8.24;100.00;99911.56;5007490;28;20078;-80
2021/11/02 09:11:59;;;;;;;21.23;10.23;;;9.70;99.90;;;8.29;100.00;99909.56;5026203;28;20080;-80
2021/11/02 09:14:54;;;;;;;21.73;9.77;;;9.70;99.90;;;8.33;100.00;99911.09;4985638;28;20142;-79
2021/11/02 09:17:23;;;;;;;21.45;10.38;;;9.70;99.90;;;8.25;100.00;99898.38;4993518;28;20076;-80
2021/11/02 09:20:13;;;;;;;20.77;10.07;;;9.70;99.90;;;8.39;100.00;99909.00;4985269;28;20069;-80
2021/11/02 09:23:03;;;;;;;21.08;9.30;;;9.70;99.90;;;8.35;100.00;99899.59;5001359;28;20069;-80
2021/11/02 09:25:52;;;;;;;19.63;9.52;;;9.80;99.90;;;8.32;100.00;99889.28;4997700;28;20087;-80
2021/11/02 09:28:41;;;;;;;16.08;8.77;;;9.80;99.90;;;8.34;100.00;99894.44;5016948;28;20063;-79
2021/11/02 09:31:33;;;;;;;22.08;9.45;;;9.70;99.90;;;8.36;100.00;99889.97;4987177;28;20073;-79
2021/11/02 09:33:59;;;;;;;19.70;9.95;;;9.80;99.90;;;8.41;100.00;99898.47;5001602;28;20069;-79
2021/11/02 09:36:42;;;;;;;;;;;9.80;99.90;;;8.49;100.00;99909.44;5027066;28;20231;-79
2021/11/02 09:39:42;;;;;;;20.08;8.80;;;9.90;99.90;;;8.54;100.00;99896.94;4987025;28;20001;-80
2021/11/02 09:42:59;;;;;;;23.13;9.88;;;9.90;99.90;;;8.58;100.00;99901.09;5009894;28;20064;-79
2021/11/02 09:46:51;;;;;;;19.58;8.95;;;10.10;99.90;;;8.66;100.00;99903.34;4996250;28;20087;-79
2021/11/02 09:50:44;;;;;;;17.48;8.13;;;10.10;99.90;;;8.70;100.00;99896.97;5028411;28;20074;-79
2021/11/02 09:54:59;;;;;;;14.77;7.40;;;10.20;99.90;;;8.81;100.00;99896.41;4993190;28;21291;-81
2021/11/02 09:58:11;;;;;;;13.50;7.43;;;10.30;99.90;;;8.88;100.00;99894.34;4996129;28;20147;-79
2021/11/02 10:01:29;;;;;;;15.07;7.80;;;10.40;99.90;;;8.89;100.00;99883.72;4996374;28;20066;-80
2021/11/02 10:04:40;;;;;;;14.68;7.57;;;10.40;99.90;;;8.92;100.00;99878.34;4978150;28;20068;-79
2021/11/02 10:08:05;;;;;;;17.33;7.65;;;10.40;99.90;;;8.95;100.00;99874.69;4998557;28;20070;-79
2021/11/02 10:11:40;;;;;;;10.68;6.22;;;10.40;99.90;;;8.96;100.00;99869.38;5015396;28;20083;-79
2021/11/02 10:14:32;;;;;;;15.52;6.63;;;10.40;99.90;;;8.94;100.00;99862.47;4984177;28;20556;-79
2021/11/02 10:17:39;;;;;;;10.60;6.57;;;10.40;99.90;;;9.03;100.00;99864.63;5008728;28;20035;-82
2021/11/02 10:21:22;;;;;;;8.00;6.07;;;10.50;99.90;;;9.13;100.00;99878.09;4982026;28;20845;-82
2021/11/02 10:24:59;;;;;;;12.00;6.23;;;10.70;99.90;;;9.28;100.00;99894.81;4995064;28;20071;-84
2021/11/02 10:28:37;;;;;;;9.93;6.15;;;10.70;99.90;;;9.28;100.00;99884.31;4982121;28;20149;-84
2021/11/02 10:32:14;;;;;;;9.68;6.10;;;10.70;99.90;;;9.28;100.00;99868.53;5016670;28;20100;-84
2021/11/02 10:35:50;;;;;;;8.88;5.78;;;10.70;99.90;;;9.31;100.00;99866.59;5021748;28;20086;-84
2021/11/02 10:39:51;;;;;;;9.95;6.03;;;10.70;99.90;;;9.32;100.00;99864.81;4972236;28;20074;-84
2021/11/02 10:43:27;;;;;;;8.57;5.50;;;10.90;99.90;;;9.37;100.00;99866.28;5001897;28;20070;-84
2021/11/02 10:46:18;;;;;;;8.40;5.30;;;10.70;99.90;;;9.36;100.00;99840.06;5011644;28;20068;-83
2021/11/02 10:48:49;;;;;;;8.82;5.72;;;10.70;99.90;;;9.45;100.00;99852.69;4964134;28;20675;-84
2021/11/02 10:52:15;;;;;;;10.68;6.25;;;10.80;99.90;;;9.50;100.00;99853.25;4982342;28;20110;-83
2021/11/02 10:55:08;;;;;;;10.43;5.55;;;11.00;99.90;;;9.57;100.00;99862.53;4998796;28;20059;-84
2021/11/02 10:58:40;;;;;;;8.27;5.38;;;10.90;99.90;;;9.48;100.00;99834.13;5008927;28;20402;-84
2021/11/02 11:01:13;;;;;;;10.60;5.20;;;10.90;99.90;;;9.55;100.00;99855.66;4994321;28;20142;-84
2021/11/02 11:03:51;;;;;;;9.18;5.15;;;9.80;99.90;;;9.60;100.00;99849.19;4939943;28;20519;-84
2021/11/02 11:06:51;;;;;;;11.18;5.43;;;11.00;99.90;;;9.54;100.00;99836.41;4981318;28;20299;-84
2021/11/02 11:09:24;;;;;;;7.93;4.60;;;11.00;99.90;;;9.57;100.00;99830.97;5007975;28;20073;-84
2021/11/02 11:12:18;;;;;;;6.63;4.43;;;11.00;99.90;;;9.58;100.00;99831.81;4942476;28;20745;-84
2021/11/02 11:15:12;;;;;;;6.55;4.57;;;11.10;99.90;;;9.60;100.00;99837.84;4982261;28;20153;-84
2021/11/02 11:17:46;;;;;;;7.82;4.13;;;11.10;99.90;;;9.44;100.00;99819.47;5039174;28;20738;-85
2021/11/02 11:20:15;;;;;;;6.07;4.60;;;11.10;99.90;;;9.54;100.00;99825.88;4960607;28;20597;-84
2021/11/02 11:22:49;;;;;;;6.10;4.15;;;11.10;99.90;;;9.52;100.00;99819.03;5023557;28;20123;-83
2021/11/02 11:25:37;;;;;;;8.10;3.88;;;;;;;9.53;100.00;99811.06;4949423;28;20054;-84
2021/11/02 11:28:14;;;;;;;8.13;3.92;;;11.00;99.90;;;9.55;100.00;99803.94;4985019;28;20071;-84
2021/11/02 11:30:51;;;;;;;6.00;4.07;;;11.10;99.90;;;9.61;100.00;99810.59;4944172;28;20132;-84
2021/11/02 11:33:19;;;;;;;5.00;3.45;;;11.00;99.90;;;9.64;100.00;99813.91;4948272;28;20120;-84
2021/11/02 11:35:58;;;;;;;6.30;4.30;;;11.10;99.90;;;9.61;100.00;99794.84;5015285;28;20054;-84
2021/11/02 11:38:43;;;;;;;6.38;4.38;;;11.00;99.90;;;9.57;100.00;99793.34;4984192;28;20207;-84
2021/11/02 11:41:13;;;;;;;5.82;3.80;;;11.00;99.90;;;9.52;100.00;99787.50;5010933;28;20119;-86
2021/11/02 11:43:41;;;;;;;5.47;3.50;;;11.00;99.90;;;9.54;100.00;99798.75;4961642;28;20063;-83
2021/11/02 11:46:15;;;;;;;6.28;4.30;;;11.00;99.90;;;9.56;100.00;99787.22;4970029;28;20472;-84
2021/11/02 11:48:42;;;;;;;5.85;4.35;;;11.00;99.90;;;9.56;100.00;99783.75;4984092;28;20046;-83
2021/11/02 11:51:24;;;;;;;7.80;5.00;;;11.00;99.90;;;9.57;100.00;99782.84;4978580;28;20047;-84
2021/11/02 11:54:05;;;;;;;7.18;4.43;;;11.00;99.90;;;9.57;100.00;99795.97;4990928;28;21191;-84
2021/11/02 11:56:39;;;;;;;6.88;4.30;;;11.10;99.90;;;9.62;100.00;99789.50;4992830;28;20032;-84
2021/11/02 11:59:25;;;;;;;7.07;4.68;;;11.10;99.90;;;9.63;100.00;99775.44;4973332;28;20060;-86
2021/11/02 12:02:09;;;;;;;8.75;4.13;;;11.20;99.90;;;9.73;100.00;99782.78;4974177;28;20414;-84
2021/11/02 12:04:53;;;;;;;6.03;4.03;;;11.20;99.90;;;9.70;100.00;99770.69;5004843;28;20142;-83
2021/11/02 12:08:08;;;;;;;7.03;3.63;;;11.10;99.90;;;9.70;100.00;99764.53;4962069;28;20040;-84
2021/11/02 12:10:37;;;;;;;8.90;4.03;;;10.90;99.90;;;9.53;100.00;99748.00;4955728;28;20432;-83
2021/11/02 12:13:12;;;;;;;7.00;4.38;;;10.90;99.90;;;9.55;100.00;99750.53;4921966;28;20068;-83
2021/11/02 12:15:58;;;;;;;9.90;4.33;;;10.90;99.90;;;9.61;100.00;99756.28;5002139;28;20076;-83
2021/11/02 12:18:28;;;;;;;7.40;4.57;;;10.90;99.90;;;9.43;100.00;99733.69;4994944;28;20079;-83
2021/11/02 12:20:55;;;;;;;6.55;3.97;;;10.90;99.90;;;9.43;100.00;99737.16;4973205;28;20050;-83
2021/11/02 12:23:42;;;;;;;6.28;4.20;;;10.80;99.90;;;9.41;100.00;99733.75;4974110;28;20075;-84
2021/11/02 12:26:10;;;;;;;6.25;3.85;;;10.70;99.90;;;9.32;100.00;99722.94;5012590;28;20149;-83
2021/11/02 12:28:46;;;;;;;6.10;3.92;;;10.70;99.90;;;9.36;100.00;99750.75;4957209;28;20055;-84
2021/11/02 12:31:24;;;;;;;6.28;4.28;;;10.60;99.90;;;9.25;100.00;99722.47;5015544;28;20046;-84
2021/11/02 12:33:53;;;;;;;8.07;4.97;;;10.70;99.90;;;9.29;100.00;99728.38;4973821;28;20047;-85
2021/11/02 12:36:26;;;;;;;7.85;4.90;;;10.70;99.90;;;9.23;100.00;99724.31;4996892;28;20050;-83
2021/11/02 12:39:06;;;;;;;6.85;4.28;;;10.70;99.90;;;9.26;100.00;99739.91;4976376;28;20068;-83
2021/11/02 12:41:32;;;;;;;6.93;4.18;;;10.70;99.90;;;9.24;100.00;99734.75;4971613;28;20121;-83
2021/11/02 12:44:10;;;;;;;11.13;4.40;;;10.70;99.90;;;9.26;100.00;99742.53;4975580;28;20062;-83
2021/11/02 12:46:44;;;;;;;7.82;4.85;;;10.70;99.90;;;9.27;100.00;99733.72;4986210;28;20051;-83
2021/11/02 12:49:36;;;;;;;8.95;4.47;;;10.80;99.90;;;9.30;100.00;99745.84;4940206;28;20582;-83
2021/11/02 12:52:09;;;;;;;7.03;4.45;;;10.80;99.90;;;9.31;100.00;99737.88;4962940;28;20067;-83
2021/11/02 12:54:37;;;;;;;6.00;4.15;;;10.80;99.90;;;9.36;100.00;99746.31;4983263;28;20047;-84
2021/11/02 12:57:16;;;;;;;5.38;4.05;;;10.80;99.90;;;9.30;100.00;99728.28;4993956;28;20069;-84
2021/11/02 12:59:58;;;;;;;8.48;4.47;;;10.70;99.90;;;9.20;100.00;99725.34;5002567;28;20417;-83
2021/11/02 13:02:35;;;;;;;6.47;4.22;;;;;;;9.17;100.00;99746.53;4997472;28;20070;-84
2021/11/02 13:05:16;;;;;;;11.00;5.18;;;10.60;99.90;;;9.23;100.00;99740.09;4992252;28;20087;-83
2021/11/02 13:07:45;;;;;;;6.05;4.22;;;10.70;99.90;;;9.29;100.00;99749.38;4985961;28;20082;-84
2021/11/02 13:10:21;;;;;;;12.05;5.70;;;10.70;99.90;;;9.30;100.00;99748.47;5004418;28;20445;-84
2021/11/02 13:12:52;;;;;;;10.88;6.18;;;10.70;99.90;;;9.35;100.00;99760.41;4982101;28;20062;-84
2021/11/02 13:15:22;;;;;;;11.68;6.50;;;10.80;99.90;;;9.45;100.00;99760.72;4946102;28;20185;-84
2021/11/02 13:17:51;;;;;;;8.50;4.80;;;10.90;99.90;;;9.55;100.00;99759.25;4985713;28;20108;-83
2021/11/02 13:20:40;;;;;;;9.27;4.40;;;11.00;99.90;;;9.62;100.00;99767.63;4988709;28;20059;-83
2021/11/02 13:23:07;;;;;;;8.18;4.38;;;11.00;99.90;;;9.61;100.00;99756.28;4983818;28;20537;-85
2021/11/02 13:25:44;;;;;;;4.75;3.67;;;11.00;99.90;;;9.61;100.00;99745.78;4965157;28;20065;-84
2021/11/02 13:28:10;;;;;;;7.88;3.90;;;11.10;99.90;;;9.55;100.00;99740.88;4952869;28;20062;-83
2021/11/02 13:30:46;;;;;;;;;;;11.00;99.90;;;9.48;100.00;99726.41;4979464;28;20160;-84
2021/11/02 13:33:16;;;;;;;8.48;3.25;;;10.90;99.90;;;9.44;100.00;99728.34;4956119;28;19955;-84
2021/11/02 13:35:58;;;;;;;8.20;3.42;;;10.90;99.90;;;9.41;100.00;99731.13;4990566;28;20070;-84
2021/11/02 13:38:37;;;;;;;5.57;2.90;;;10.80;99.90;;;9.36;100.00;99729.72;4972222;28;20271;-83
2021/11/02 13:41:29;;;;;;;7.55;3.60;;;10.80;99.90;;;9.28;100.00;99717.03;5005725;28;20062;-83
2021/11/02 13:44:06;;;;;;;5.68;3.17;;;10.70;99.90;;;9.24;100.00;99720.75;4978145;28;20067;-83
2021/11/02 13:46:39;;;;;;;6.50;4.00;;;10.60;99.90;;;9.20;100.00;99698.22;4970449;28;20560;-83
2021/11/02 13:49:10;;;;;;;5.82;3.70;;;10.60;99.90;;;9.21;100.00;99698.13;4966687;28;20083;-83
2021/11/02 13:51:37;;;;;;;11.15;3.22;;;10.60;99.90;;;9.15;100.00;99701.13;4921118;28;20068;-84
2021/11/02 13:54:06;;;;;;;7.50;3.47;;;10.60;99.90;;;9.15;100.00;99700.28;4979986;28;20062;-83
2021/11/02 13:56:43;;;;;;;5.00;3.63;;;10.60;99.90;;;9.14;100.00;99703.84;4979172;28;20059;-83
2021/11/02 13:59:12;;;;;;;5.30;3.40;;;10.60;99.90;;;9.15;100.00;99700.28;4962434;28;20055;-84
2021/11/02 14:02:00;;;;;;;5.00;3.63;;;10.60;99.90;;;9.14;100.00;99698.59;4946008;28;20683;-84
2021/11/02 14:04:43;;;;;;;4.55;3.47;;;10.60;99.90;;;9.17;100.00;99715.00;5017227;28;20141;-84
2021/11/02 14:07:11;;;;;;;5.68;3.42;;;10.70;99.90;;;9.21;100.00;99710.44;4966542;28;20380;-83
2021/11/02 14:09:59;;;;;;;8.02;3.60;;;10.70;99.90;;;9.20;100.00;99716.59;4976690;28;20071;-85
2021/11/02 14:12:28;;;;;;;4.75;3.28;;;10.70;99.90;;;9.23;100.00;99722.53;4993849;28;20070;-84
2021/11/02 14:15:21;;;;;;;6.38;3.78;;;10.70;99.90;;;9.21;100.00;99716.53;4998251;28;20066;-85
2021/11/02 14:18:09;;;;;;;6.85;4.22;;;10.70;99.90;;;9.22;100.00;99712.09;4971197;28;20523;-85
2021/11/02 14:20:49;;;;;;;7.35;3.97;;;10.60;99.90;;;9.17;100.00;99701.88;4982004;28;20078;-84
2021/11/02 14:23:42;;;;;;;7.13;4.45;;;10.60;99.90;;;9.15;100.00;99698.50;5019003;28;20033;-84
2021/11/02 14:26:34;;;;;;;11.15;4.50;;;10.60;99.90;;;9.16;100.00;99705.44;4988382;28;20063;-83
2021/11/02 14:29:03;;;;;;;9.13;5.35;;;10.60;99.90;;;9.13;100.00;99700.34;5080286;28;20670;-84
2021/11/02 14:31:37;;;;;;;10.25;5.30;;;10.60;99.90;;;9.12;100.00;99696.03;5003591;28;20430;-84
2021/11/02 14:34:27;;;;;;;16.48;8.75;;;10.60;99.90;;;9.14;100.00;99695.97;4992920;28;20088;-84
2021/11/02 14:37:17;;;;;;;8.77;5.65;;;10.60;99.90;;;9.18;100.00;99698.34;4955367;28;20213;-84
2021/11/02 14:40:11;;;;;;;8.88;4.82;;;10.60;99.90;;;9.15;100.00;99698.50;4984343;28;20203;-83
2021/11/02 14:42:50;;;;;;;9.68;5.07;;;10.60;99.90;;;9.14;100.00;99696.81;5000553;28;20882;-83
2021/11/02 14:45:49;;;;;;;11.38;5.05;;;10.60;99.90;;;9.13;100.00;99697.72;4970585;28;20150;-84
2021/11/02 14:48:50;;;;;;;13.00;7.50;;;10.60;99.90;;;9.15;100.00;99695.84;4988982;28;20076;-84
2021/11/02 14:51:20;;;;;;;12.73;6.60;;;10.60;99.90;;;9.15;100.00;99682.72;5052491;28;20496;-83
2021/11/02 14:53:48;;;;;;;15.70;9.52;;;10.60;99.90;;;9.17;100.00;99691.38;5018677;28;20530;-83
2021/11/02 14:56:32;;;;;;;39.65;19.13;;;10.60;99.90;;;9.16;100.00;99679.19;4972605;28;20051;-83
2021/11/02 14:59:06;;;;;;;22.23;11.65;;;10.60;99.90;;;9.18;100.00;99684.34;4965489;28;20078;-85
2021/11/02 15:01:37;;;;;;;16.80;8.30;;;10.60;99.90;;;9.15;100.00;99680.09;5008160;28;20067;-83
2021/11/02 15:04:18;;;;;;;17.27;9.27;;;10.60;99.90;;;9.07;100.00;99669.22;4977716;28;20160;-84
2021/11/02 15:06:58;;;;;;;14.40;6.50;;;10.60;99.90;;;9.02;100.00;99668.63;4958297;28;20055;-84
2021/11/02 15:09:30;;;;;;;21.80;11.38;;;10.60;99.90;;;8.97;100.00;99671.50;4978224;28;20087;-84
2021/11/02 15:11:57;;;;;;;8.93;5.50;;;10.50;99.90;;;9.00;100.00;99673.09;4963371;28;20088;-83
2021/11/02 15:14:43;;;;;;;12.02;5.88;;;10.50;99.90;;;8.94;100.00;99670.81;4983357;28;20097;-83
2021/11/02 15:17:13;;;;;;;9.45;5.35;;;;;;;8.89;100.00;99660.59;4958729;28;20067;-83
2021/11/02 15:19:41;;;;;;;14.75;5.82;;;10.40;99.90;;;8.87;100.00;99661.59;4972316;28;20091;-83
2021/11/02 15:22:19;;;;;;;9.50;5.45;;;10.40;99.90;;;8.86;100.00;99670.44;4975008;28;20055;-84
2021/11/02 15:24:56;;;;;;;12.85;5.40;;;10.30;99.90;;;8.81;100.00;99687.28;4965217;28;20074;-84
2021/11/02 15:27:32;;;;;;;10.90;5.50;;;10.20;99.90;;;8.76;100.00;99676.16;4951923;28;20099;-84
2021/11/02 15:30:10;;;;;;;9.38;5.82;;;10.10;99.90;;;8.69;100.00;99664.34;4959795;28;20075;-83
2021/11/02 15:32:42;;;;;;;14.25;5.95;;;10.10;99.90;;;8.67;100.00;99674.06;4985857;28;20552;-84
2021/11/02 15:35:15;;;;;;;10.88;6.60;;;10.00;99.90;;;8.61;100.00;99669.16;4954058;28;20582;-84
2021/11/02 15:37:48;;;;;;;10.02;5.57;;;10.00;99.90;;;8.59;100.00;99676.25;4952966;28;20062;-83
2021/11/02 15:40:25;;;;;;;9.75;5.90;;;10.00;99.90;;;8.57;100.00;99681.63;4978003;28;20063;-84
2021/11/02 15:42:57;;;;;;;9.75;6.03;;;10.00;99.90;;;8.56;100.00;99679.91;4989959;28;20056;-84
2021/11/02 15:45:36;;;;;;;12.63;6.13;;;10.00;99.90;;;8.55;100.00;99683.47;5001508;28;20069;-84
2021/11/02 15:48:12;;;;;;;10.60;5.40;;;10.00;99.90;;;8.56;100.00;99681.69;4964076;28;20078;-84
2021/11/02 15:50:55;;;;;;;8.40;4.97;;;10.00;99.90;;;8.51;100.00;99684.56;5072379;28;20072;-83
2021/11/02 15:53:33;;;;;;;9.95;5.90;;;10.00;99.90;;;8.48;100.00;99678.63;4968276;28;20399;-83
2021/11/02 15:56:04;;;;;;;11.07;5.78;;;9.90;99.90;;;8.46;100.00;99675.25;4991680;28;20065;-84
2021/11/02 15:58:35;;;;;;;10.52;5.82;;;9.90;99.90;;;8.39;100.00;99667.69;4948953;28;20074;-84
2021/11/02 16:01:02;;;;;;;9.30;5.55;;;9.90;99.90;;;8.39;100.00;99670.28;4954146;28;20032;-84
2021/11/02 16:03:38;;;;;;;8.88;5.47;;;9.90;99.90;;;8.38;100.00;99667.75;4989798;28;20523;-83
2021/11/02 16:06:05;;;;;;;8.50;5.13;;;9.90;99.90;;;8.34;100.00;99667.09;4961634;28;20525;-83
2021/11/02 16:08:31;;;;;;;9.35;5.03;;;9.80;99.90;;;8.33;100.00;99670.63;4999864;28;20062;-86